• Join FlightAware (Why Join?)
  • Login
  • US Flag 
07:08PM EDT


 

Airport Tracker/Info


-or-


 

Live Flight TrackerFlight Track Log ✈ AWI3688 ✈ 11-May-2013 ✈ KALB - KPHL

Flight Track Log - Related Links

Times and Time Zones

All times are in EDT time to prevent confusion due to time zone crossing. See the AWI3688 flight status page for this flight to view local times or setup timezone preferences in your user account.

Time Position Orientation Groundspeed Altitude Reporting Facility
EDT Latitude Longitude Course Direction KTS MPH feet Rate Location/Type
03:14PM 42.7278 -73.8136 223° Southwest 148 170 1,700  Level Boston Center
03:14PM 42.7214 -73.8250 233° Southwest 179 206 2,200 2,040 Climbing Boston Center
03:16PM 42.7078 -73.9094 258° West 247 284 4,400 2,700 Climbing Boston Center
03:16PM 42.7128 -73.9886 275° West 256 295 7,300 3,000 Climbing Boston Center
03:17PM 42.6939 -74.3590 220° Southwest  Level FlightAware Approximate
03:17PM 42.7219 -74.0850 277° West 256 295 10,000  Level Boston Center
03:18PM 42.6224 -74.4394 220° Southwest  Level FlightAware Approximate
03:18PM 42.7311 -74.1756 278° West 261 300 12,600  Level Boston Center
03:19PM 42.5524 -74.5220 223° Southwest  Level FlightAware Approximate
03:20PM 42.7394 -74.3031 275° West 280 322 15,000  Level Boston Center
03:21PM 42.6775 -74.3944 227° Southwest 280 322 16,000 480 Climbing Boston Center
03:22PM 42.6158 -74.4603 218° Southwest 300 345 16,000  Level Boston Center
03:23PM 42.5414 -74.5450 220° Southwest 321 369 16,000  Level Boston Center
03:24PM 42.4794 -74.6161 220° Southwest 327 376 16,000  Level Boston Center
03:25PM 42.4028 -74.7008 219° Southwest 327 376 16,000  Level Boston Center
03:26PM 42.3431 -74.7689 220° Southwest 327 376 16,100  Climbing Boston Center
03:27PM 42.2703 -74.8586 222° Southwest 327 376 16,000 -60 Descending Boston Center
03:28PM 42.2019 -74.9344 219° Southwest 321 369 16,000  Level Boston Center
03:30PM 42.0389 -75.0769 213° Southwest 316 364 16,000  Level New York Center
03:31PM 41.9617 -75.1386 211° Southwest 321 369 16,000  Level New York Center
03:32PM 41.8867 -75.2006 212° Southwest 321 369 16,000  Level New York Center
03:33PM 41.8178 -75.2572 212° Southwest 329 379 16,000  Level New York Center
03:34PM 41.7406 -75.3161 210° Southwest 324 373 16,000 -360 Level New York Center
03:35PM 41.6567 -75.3853 212° Southwest 324 373 15,300 -960 Descending New York Center
03:36PM 41.5836 -75.4439 211° Southwest 324 373 14,200 -1,200 Descending New York Center
03:37PM 41.5083 -75.5025 210° Southwest 324 373 13,000 -1,140 Descending New York Center
03:38PM 41.4417 -75.5558 211° Southwest 324 373 12,000 -540 Descending New York Center
03:39PM 41.3619 -75.6192 211° Southwest 314 361 12,000  Level New York Center
03:40PM 41.2975 -75.6728 212° Southwest 314 361 12,000  Level New York Center
03:41PM 41.2008 -75.6878 187° South 307 353 12,000  Level New York Center
03:42PM 41.1114 -75.6894 181° South 324 373 12,000  Level New York Center
03:43PM 41.0300 -75.6892 180° South 332 382 12,000  Level New York Center
03:44PM 40.9406 -75.6881 179° South 327 376 12,000  Level New York Center
03:45PM 40.8447 -75.6894 181° South 322 371 12,000  Level New York Center
03:46PM 40.7531 -75.6856 178° South 322 371 12,000  Level New York Center
03:47PM 40.6656 -75.6875 181° South 327 376 12,000 -60 Level New York Center
03:48PM 40.5847 -75.6733 172° South 332 382 11,900 -600 Descending New York Center
03:49PM 40.5242 -75.5736 129° Southeast 322 371 10,900 -960 Descending New York Center
03:50PM 40.4642 -75.4603 125° Southeast 340 391 10,000 -900 Descending New York Center
03:51PM 40.4017 -75.4069 147° Southeast 307 353 9,200 -1,020 Descending New York Center
03:52PM 40.3367 -75.3672 155° Southeast 278 320 8,000 -840 Descending New York Center
03:53PM 40.2667 -75.3408 164° South 244 281 7,600 -780 Descending New York Center
03:54PM 40.2089 -75.3314 173° South 233 268 6,500 -840 Descending New York Center
03:55PM 40.1428 -75.3164 170° South 233 268 6,000 -300 Descending New York Center
03:56PM 40.0867 -75.3072 173° South 233 268 6,000  Level New York Center
03:57PM 40.0500 -75.2500 130° Southeast 237 273 6,000  Level Philadelphia TRACON
03:58PM 40.0167 -75.1833 123° Southeast 196 226 6,000  Level Philadelphia TRACON
03:59PM 39.9833 -75.1333 131° Southeast 221 254 6,000 -300 Level Philadelphia TRACON
04:00PM 40.0000 -75.0667 72° East 217 250 5,500 -840 Descending Philadelphia TRACON
04:01PM 40.0167 -75.0000 72° East 215 247 4,500 -840 Descending Philadelphia TRACON
04:02PM 40.0333 -74.9167 75° East 207 238 4,000 -240 Descending Philadelphia TRACON
04:03PM 40.0000 -74.8667 131° Southeast 172 198 4,000  Level Philadelphia TRACON
04:04PM 39.9667 -74.8833 201° Southwest 171 197 4,000 -180 Level Philadelphia TRACON
04:05PM 39.9333 -74.9333 229° Southwest 167 192 3,700 -420 Descending Philadelphia TRACON
04:06PM 39.9333 -74.9667 270° West 169 194 3,300 -420 Descending Philadelphia TRACON
04:07PM 39.9167 -75.0333 252° West 166 191 3,000 -300 Descending Philadelphia TRACON